Time;durP1;ratioP1;P1;durP2;ratioP2;P2;SDS_P1;SDS_P2;PMS_P1;PMS_P2;Temp;Humidity;BMP_temperature;BMP_pressure;BME280_temperature;BME280_humidity;BME280_pressure;Samples;Min_cycle;Max_cycle;Signal;HPM_P1;HPM_P2
2021/12/18 00:01:17;;;;;;;7.18;3.95;;;;;;;2.00;70.10;99715.63;5071999;28;20064;-52
2021/12/18 00:03:44;;;;;;;7.13;3.78;;;;;;;2.03;70.33;99712.00;5072041;28;20028;-53
2021/12/18 00:06:10;;;;;;;5.00;3.40;;;;;;;2.05;70.35;99712.78;5071777;28;20024;-54
2021/12/18 00:08:37;;;;;;;5.82;3.88;;;;;;;2.01;70.08;99719.16;5071577;28;20086;-53
2021/12/18 00:11:04;;;;;;;5.03;3.30;;;;;;;2.04;70.57;99713.72;5071866;28;20047;-52
2021/12/18 00:13:30;;;;;;;5.45;3.75;;;;;;;2.01;70.38;99708.59;5072190;28;20032;-49
2021/12/18 00:15:55;;;;;;;6.75;4.63;;;;;;;2.03;70.61;99712.00;5070080;28;20102;-52
2021/12/18 00:18:21;;;;;;;5.30;3.78;;;;;;;2.05;70.34;99709.28;5071359;28;20442;-50
2021/12/18 00:20:47;;;;;;;5.95;3.60;;;;;;;1.89;69.93;99685.38;5070411;28;20043;-51
2021/12/18 00:23:13;;;;;;;5.30;3.30;;;;;;;2.01;69.77;99706.78;5071577;28;20038;-55
2021/12/18 00:25:39;;;;;;;4.30;3.03;;;;;;;2.00;69.94;99701.59;5071023;28;20032;-53
2021/12/18 00:28:05;;;;;;;3.85;2.90;;;;;;;1.99;69.63;99703.38;5071515;28;20040;-54
2021/12/18 00:30:33;;;;;;;5.68;3.03;;;;;;;2.01;69.80;99709.44;5071502;28;20025;-52
2021/12/18 00:32:58;;;;;;;4.75;2.78;;;;;;;1.99;69.69;99706.00;5071569;28;20467;-51
2021/12/18 00:35:24;;;;;;;5.55;3.38;;;;;;;1.96;70.09;99702.69;5071044;28;20126;-54
2021/12/18 00:37:50;;;;;;;4.50;2.95;;;;;;;1.95;69.66;99699.16;5071413;28;20036;-54
2021/12/18 00:40:23;;;;;;;4.20;2.85;;;;;;;2.06;69.86;99716.31;5071606;28;20254;-54
2021/12/18 00:43:38;;;;;;;5.57;3.08;;;;;;;2.06;69.99;99719.78;5071117;28;20025;-49
2021/12/18 00:45:35;;;;;;;4.13;2.97;;;;;;;2.10;70.36;99716.06;5073811;28;20056;-53
2021/12/18 00:48:01;;;;;;;5.43;2.72;;;;;;;2.11;69.91;99715.13;5071034;28;20021;-54
2021/12/18 00:50:30;;;;;;;5.63;3.20;;;;;;;2.12;69.57;99716.00;5070771;28;20492;-53
2021/12/18 00:52:56;;;;;;;4.57;3.20;;;;;;;2.09;70.10;99716.16;5070765;28;20426;-49
2021/12/18 00:55:22;;;;;;;3.67;2.72;;;;;;;2.06;69.65;99711.03;5069537;28;20044;-50
2021/12/18 00:57:52;;;;;;;5.13;3.03;;;;;;;2.04;70.09;99708.44;5070827;28;20037;-50
2021/12/18 01:00:23;;;;;;;3.47;2.50;;;;;;;2.00;69.74;99718.28;5071102;28;20040;-51
2021/12/18 01:02:57;;;;;;;3.67;2.90;;;;;;;2.04;69.95;99721.66;5070844;28;20501;-52
2021/12/18 01:05:24;;;;;;;4.35;2.95;;;;;;;1.97;70.37;99710.50;5070732;28;20036;-54
2021/12/18 01:07:50;;;;;;;3.08;2.45;;;;;;;1.99;69.99;99713.94;5071158;28;20033;-54
2021/12/18 01:12:59;;;;;;;5.05;3.10;;;;;;;2.04;70.18;99721.66;5070953;28;20059;-53
2021/12/18 01:23:22;;;;;;;3.42;3.00;;;;;;;2.16;69.91;99722.84;5070893;28;20024;-53
2021/12/18 01:25:49;;;;;;;4.03;3.00;;;;;;;2.14;70.04;99720.28;5070651;28;20473;-55
2021/12/18 01:28:15;;;;;;;4.72;2.90;;;;;;;1.95;69.58;99687.75;5070651;28;20029;-54
2021/12/18 01:30:41;;;;;;;6.57;3.15;;;;;;;2.19;70.14;99720.06;5069934;28;20039;-52
2021/12/18 01:33:07;;;;;;;3.72;2.72;;;;;;;2.07;69.66;99697.72;5070596;28;20041;-52
2021/12/18 01:35:33;;;;;;;6.03;3.17;;;;;;;2.22;69.11;99722.56;5070507;28;20518;-55
2021/12/18 01:37:58;;;;;;;6.60;3.60;;;;;;;2.20;68.92;99718.28;5070881;28;20147;-56
2021/12/18 01:40:26;;;;;;;4.78;3.00;;;;;;;2.19;69.63;99727.97;5071000;28;20028;-53
2021/12/18 01:44:14;;;;;;;4.82;2.85;;;;;;;2.19;69.31;99729.78;5070799;28;20055;-54
2021/12/18 01:51:17;;;;;;;6.10;3.22;;;;;;;2.25;69.11;99721.56;5070533;28;20032;-54
2021/12/18 01:53:43;;;;;;;;;;;;;;;2.46;68.97;99722.31;5072345;28;20040;-55
2021/12/18 01:56:09;;;;;;;;;;;;;;;2.55;68.82;99724.50;5074801;28;19912;-51
2021/12/18 01:58:35;;;;;;;5.70;3.70;;;;;;;2.35;67.91;99728.09;5074590;28;19934;-48
2021/12/18 02:01:03;;;;;;;5.18;3.50;;;;;;;2.24;68.42;99727.78;5074004;28;20037;-52
2021/12/18 02:03:29;;;;;;;6.40;3.40;;;;;;;2.19;68.47;99722.69;5073817;28;20029;-53
2021/12/18 02:05:55;;;;;;;6.57;3.58;;;;;;;2.22;68.58;99727.84;5074038;28;20036;-51
2021/12/18 02:08:27;;;;;;;5.65;3.72;;;;;;;2.24;68.54;99730.41;5074157;28;20032;-55
2021/12/18 02:11:08;;;;;;;8.13;4.03;;;;;;;2.24;68.29;99733.06;5072713;28;20064;-52
2021/12/18 02:21:57;;;;;;;6.65;3.95;;;;;;;2.13;69.69;99738.84;5073709;28;20063;-53
2021/12/18 02:24:25;;;;;;;6.50;3.78;;;;;;;2.09;69.51;99732.00;5073331;28;20449;-52
2021/12/18 02:26:51;;;;;;;5.60;3.08;;;;;;;2.01;70.25;99750.84;5073963;28;20025;-54
2021/12/18 02:29:17;;;;;;;5.07;2.80;;;;;;;1.93;70.67;99742.41;5073567;28;20036;-54
2021/12/18 02:31:44;;;;;;;3.42;2.03;;;;;;;1.83;69.91;99748.13;5073296;28;20048;-54
2021/12/18 02:34:16;;;;;;;2.75;1.60;;;;;;;1.70;70.22;99757.53;5073705;28;20032;-54
2021/12/18 02:36:48;;;;;;;2.72;1.10;;;;;;;1.54;69.54;99731.81;5074314;28;20024;-48
2021/12/18 02:41:45;;;;;;;2.95;1.10;;;;;;;1.41;69.65;99751.75;5073124;28;20495;-51
2021/12/18 02:44:12;;;;;;;2.08;1.08;;;;;;;1.36;68.96;99753.72;5073338;28;20490;-53
2021/12/18 02:46:39;;;;;;;2.20;1.38;;;;;;;1.25;68.60;99733.97;5073053;28;20571;-52
2021/12/18 02:49:16;;;;;;;2.50;1.27;;;;;;;1.42;68.68;99764.88;5073170;28;20025;-54
2021/12/18 02:51:42;;;;;;;1.95;1.10;;;;;;;1.35;67.86;99762.56;5073215;28;20070;-52
2021/12/18 02:54:08;;;;;;;1.98;0.82;;;;;;;1.34;67.71;99760.84;5072970;28;20020;-55
2021/12/18 02:56:35;;;;;;;1.88;0.88;;;;;;;1.31;67.50;99766.28;5072892;28;20040;-53
2021/12/18 02:59:05;;;;;;;1.65;0.98;;;;;;;1.30;67.19;99757.47;5071606;28;20063;-54
2021/12/18 03:01:32;;;;;;;2.55;0.98;;;;;;;1.28;67.33;99764.59;5072797;28;20484;-52
2021/12/18 03:03:59;;;;;;;0.82;0.77;;;;;;;1.24;66.89;99756.00;5072757;28;20434;-54
2021/12/18 03:06:36;;;;;;;1.10;0.77;;;;;;;1.23;67.14;99759.56;5072632;28;20064;-51
2021/12/18 03:25:22;;;;;;;1.30;0.88;;;;;;;1.21;65.30;99756.13;5071377;28;20078;-54
2021/12/18 03:27:49;;;;;;;1.95;1.00;;;;;;;1.26;64.90;99762.06;5072032;28;20020;-55
2021/12/18 03:30:16;;;;;;;2.13;0.82;;;;;;;1.27;64.45;99766.41;5072319;28;20041;-52
2021/12/18 03:32:43;;;;;;;1.63;0.70;;;;;;;1.20;64.48;99767.56;5071126;28;20098;-54
2021/12/18 03:35:09;;;;;;;0.93;0.70;;;;;;;1.25;64.04;99772.66;5072386;28;20059;-53
2021/12/18 03:37:36;;;;;;;1.55;0.90;;;;;;;1.23;63.30;99769.22;5071843;28;20035;-54
2021/12/18 03:40:07;;;;;;;1.88;0.82;;;;;;;1.19;63.85;99760.59;5072125;28;20040;-51
2021/12/18 03:42:33;;;;;;;1.95;0.82;;;;;;;1.20;63.81;99780.75;5072348;28;20111;-50
2021/12/18 03:44:59;;;;;;;1.65;0.90;;;;;;;1.20;63.51;99772.84;5072196;28;20116;-50
2021/12/18 03:47:25;;;;;;;2.03;0.95;;;;;;;1.20;63.07;99780.75;5071888;28;20029;-53
2021/12/18 03:49:51;;;;;;;1.40;0.85;;;;;;;1.21;63.35;99777.22;5071669;28;20032;-55
2021/12/18 03:52:17;;;;;;;2.50;1.02;;;;;;;1.20;63.32;99772.84;5072387;28;20038;-53
2021/12/18 03:54:43;;;;;;;1.38;0.80;;;;;;;1.24;62.75;99777.09;5072405;28;20028;-53
2021/12/18 03:57:08;;;;;;;2.17;0.90;;;;;;;1.25;62.26;99793.75;5071606;28;20032;-50
2021/12/18 03:59:34;;;;;;;2.03;0.80;;;;;;;1.05;62.49;99745.34;5071578;28;20028;-56
2021/12/18 04:01:59;;;;;;;1.83;0.90;;;;;;;1.28;62.74;99781.31;5070441;28;20032;-52
2021/12/18 04:04:25;;;;;;;1.17;0.70;;;;;;;1.29;62.66;99787.41;5071606;28;20495;-53
2021/12/18 04:06:51;;;;;;;1.52;1.08;;;;;;;1.30;62.67;99778.59;5071381;28;20032;-54
2021/12/18 04:09:17;;;;;;;1.65;1.00;;;;;;;1.31;62.85;99782.94;5071714;28;20396;-52
2021/12/18 04:11:43;;;;;;;1.45;0.90;;;;;;;1.32;62.57;99789.94;5071349;28;20388;-52
2021/12/18 04:14:10;;;;;;;1.13;0.90;;;;;;;1.33;63.18;99798.72;5072066;28;20032;-52
2021/12/18 04:16:36;;;;;;;1.63;0.75;;;;;;;1.27;62.58;99784.88;5070931;28;20039;-52
2021/12/18 04:19:02;;;;;;;2.13;0.80;;;;;;;1.24;62.88;99787.66;5071258;28;20029;-53
2021/12/18 04:21:32;;;;;;;1.77;0.82;;;;;;;1.21;62.93;99787.78;5071616;28;20028;-53
2021/12/18 04:23:59;;;;;;;1.50;0.90;;;;;;;1.16;63.37;99792.38;5071521;28;20111;-53
2021/12/18 04:26:25;;;;;;;2.40;0.82;;;;;;;1.13;63.51;99789.88;5070024;28;20035;-51
2021/12/18 04:28:50;;;;;;;3.05;1.10;;;;;;;1.09;63.94;99780.38;5071119;28;20447;-55
2021/12/18 04:31:16;;;;;;;2.33;0.82;;;;;;;1.12;64.27;99790.78;5071642;28;20066;-57
2021/12/18 04:33:42;;;;;;;1.20;0.65;;;;;;;1.11;64.32;99794.34;5071450;28;20040;-55
2021/12/18 04:36:08;;;;;;;1.05;0.70;;;;;;;1.04;65.04;99784.97;5071019;28;20446;-56
2021/12/18 04:38:34;;;;;;;1.40;0.75;;;;;;;1.02;64.91;99786.84;5070913;28;20111;-54
2021/12/18 04:41:00;;;;;;;1.00;0.77;;;;;;;1.03;65.30;99804.38;5070691;28;20477;-54
2021/12/18 04:43:26;;;;;;;1.42;0.77;;;;;;;1.00;65.41;99800.06;5071102;28;20025;-53
2021/12/18 04:45:51;;;;;;;2.28;0.90;;;;;;;0.97;65.41;99795.78;5071102;28;20032;-55
2021/12/18 04:48:17;;;;;;;1.83;1.20;;;;;;;0.95;65.66;99802.88;5071118;28;20039;-54
2021/12/18 04:50:43;;;;;;;1.67;0.75;;;;;;;0.96;65.16;99794.03;5070968;28;20039;-52
2021/12/18 04:53:10;;;;;;;1.20;0.82;;;;;;;0.96;64.91;99794.03;5070880;28;20098;-55
2021/12/18 04:55:36;;;;;;;1.95;0.90;;;;;;;1.00;64.81;99797.44;5070626;28;20032;-54
2021/12/18 04:58:01;;;;;;;1.38;0.85;;;;;;;1.03;64.54;99799.09;5071062;28;20036;-55
2021/12/18 05:00:36;;;;;;;1.25;0.77;;;;;;;1.04;64.20;99791.09;5070826;28;20024;-55
2021/12/18 05:03:05;;;;;;;2.38;1.15;;;;;;;1.05;64.31;99797.25;5070960;28;20032;-51
2021/12/18 05:05:31;;;;;;;2.90;1.10;;;;;;;1.05;63.87;99798.09;5071215;28;20033;-54
2021/12/18 05:07:57;;;;;;;2.30;1.20;;;;;;;1.05;63.52;99797.25;5070732;28;20028;-54
2021/12/18 05:10:22;;;;;;;2.55;1.10;;;;;;;1.03;63.51;99797.28;5070639;28;20036;-53
2021/12/18 05:12:48;;;;;;;2.70;1.20;;;;;;;1.07;63.29;99800.69;5071486;28;20393;-55
2021/12/18 05:15:13;;;;;;;2.42;1.25;;;;;;;1.03;62.86;99794.66;5070389;28;20036;-55
2021/12/18 05:17:39;;;;;;;2.30;1.23;;;;;;;1.08;62.95;99797.13;5070595;28;20033;-55
2021/12/18 05:20:05;;;;;;;3.88;2.42;;;;;;;1.04;62.94;99806.91;5070991;28;20025;-55
2021/12/18 05:22:31;;;;;;;3.72;2.10;;;;;;;1.04;62.40;99796.38;5070638;28;20024;-54
2021/12/18 05:24:56;;;;;;;3.83;2.10;;;;;;;0.91;62.33;99769.66;5070728;28;20373;-53
2021/12/18 05:27:22;;;;;;;4.25;2.00;;;;;;;1.09;62.32;99806.75;5070961;28;20496;-52
2021/12/18 05:29:47;;;;;;;5.70;2.35;;;;;;;1.03;61.88;99804.38;5074279;28;20029;-54
2021/12/18 05:32:13;;;;;;;4.63;2.38;;;;;;;0.98;61.53;99807.19;5074392;28;20135;-55
2021/12/18 05:34:39;;;;;;;5.40;2.40;;;;;;;0.71;62.10;99752.88;5074342;28;20385;-54
2021/12/18 05:37:19;;;;;;;5.80;2.60;;;;;;;0.95;61.93;99797.59;5074463;28;20452;-55
2021/12/18 05:39:48;;;;;;;6.65;3.47;;;;;;;0.97;61.55;99800.19;5073450;28;20028;-54
2021/12/18 05:42:14;;;;;;;5.40;3.15;;;;;;;0.90;61.57;99799.59;5074362;28;20171;-55
2021/12/18 05:44:40;;;;;;;5.38;3.05;;;;;;;0.91;61.75;99798.66;5074324;28;20082;-54
2021/12/18 05:47:06;;;;;;;8.38;2.95;;;;;;;0.90;61.38;99796.94;5074195;28;20024;-56
2021/12/18 05:49:31;;;;;;;5.72;2.85;;;;;;;0.85;61.45;99780.47;5074198;28;20036;-54
2021/12/18 05:51:57;;;;;;;6.55;3.13;;;;;;;0.91;61.25;99797.81;5074483;28;20436;-53
2021/12/18 05:54:23;;;;;;;6.85;3.03;;;;;;;0.88;61.50;99790.88;5074203;28;20040;-53
2021/12/18 05:56:48;;;;;;;6.40;3.50;;;;;;;0.93;61.96;99798.59;5074188;28;20060;-56
2021/12/18 05:59:14;;;;;;;5.18;3.20;;;;;;;0.97;61.30;99797.56;5074468;28;20035;-52
2021/12/18 06:01:39;;;;;;;7.80;3.40;;;;;;;0.97;61.15;99798.44;5074104;28;20107;-55
2021/12/18 06:04:05;;;;;;;8.32;3.55;;;;;;;0.92;60.67;99781.91;5073852;28;20105;-54
2021/12/18 06:06:31;;;;;;;7.88;3.63;;;;;;;0.99;61.38;99793.06;5074432;28;20037;-53
2021/12/18 06:08:56;;;;;;;8.85;4.10;;;;;;;1.00;60.28;99802.69;5074316;28;20037;-48
2021/12/18 06:11:23;;;;;;;6.63;3.10;;;;;;;0.96;60.07;99801.97;5074044;28;20439;-51
2021/12/18 06:13:51;;;;;;;7.20;3.78;;;;;;;0.96;59.89;99798.47;5073625;28;20420;-49
2021/12/18 06:16:19;;;;;;;7.53;3.00;;;;;;;0.98;60.09;99804.53;5073979;28;20108;-55
2021/12/18 06:18:45;;;;;;;4.70;2.22;;;;;;;0.95;59.68;99804.69;5074140;28;20107;-52
2021/12/18 06:21:16;;;;;;;5.25;2.17;;;;;;;0.98;59.13;99807.19;5073801;28;20112;-50
2021/12/18 06:23:44;;;;;;;6.38;2.72;;;;;;;0.89;59.53;99805.78;5073695;28;20033;-55
2021/12/18 06:26:10;;;;;;;6.65;2.63;;;;;;;0.92;58.70;99813.56;5073807;28;20029;-54
2021/12/18 06:28:36;;;;;;;4.05;2.00;;;;;;;0.71;58.82;99794.22;5073924;28;20034;-55
2021/12/18 06:31:02;;;;;;;2.10;0.88;;;;;;;0.76;58.36;99821.22;5073168;28;20059;-54
2021/12/18 06:33:29;;;;;;;1.48;0.80;;;;;;;0.73;58.92;99815.25;5073234;28;20040;-55
2021/12/18 06:35:55;;;;;;;2.35;1.10;;;;;;;0.71;58.62;99815.28;5073530;28;20033;-51
2021/12/18 06:38:21;;;;;;;2.60;1.10;;;;;;;0.66;58.28;99796.19;5072172;28;20112;-52
2021/12/18 06:40:47;;;;;;;1.85;0.88;;;;;;;0.69;58.61;99804.81;5072875;28;20127;-58
2021/12/18 06:43:12;;;;;;;1.65;0.75;;;;;;;0.71;58.24;99805.59;5071858;28;20501;-53
2021/12/18 06:45:38;;;;;;;1.50;0.70;;;;;;;0.46;58.45;99760.06;5073516;28;20028;-48
2021/12/18 06:48:04;;;;;;;1.95;0.80;;;;;;;0.69;58.07;99801.31;5072947;28;20029;-49
2021/12/18 06:50:32;;;;;;;2.03;0.70;;;;;;;0.54;57.58;99773.81;5072696;28;20029;-56
2021/12/18 06:52:57;;;;;;;1.98;0.90;;;;;;;0.77;57.59;99808.94;5073015;28;20412;-56
2021/12/18 06:55:23;;;;;;;1.83;0.93;;;;;;;0.76;57.51;99802.78;5073062;28;20039;-58
2021/12/18 06:57:49;;;;;;;2.42;1.30;;;;;;;0.48;57.92;99766.13;5072266;28;20071;-55
2021/12/18 07:00:16;;;;;;;2.58;1.63;;;;;;;0.69;57.82;99781.09;5071059;28;20036;-55
2021/12/18 07:02:42;;;;;;;3.03;1.30;;;;;;;0.94;57.26;99793.25;5069311;28;20043;-52
2021/12/18 07:05:09;;;;;;;1.23;0.80;;;;;;;1.10;56.55;99800.53;5072246;28;20028;-49
2021/12/18 07:07:36;;;;;;;1.33;0.80;;;;;;;1.19;56.26;99792.22;5071415;28;20032;-54
2021/12/18 07:10:06;;;;;;;1.35;0.90;;;;;;;1.35;55.92;99799.50;5072257;28;20063;-55
2021/12/18 07:12:32;;;;;;;1.75;0.90;;;;;;;1.45;55.72;99798.19;5072097;28;20063;-55
2021/12/18 07:14:57;;;;;;;2.92;0.60;;;;;;;1.47;55.49;99796.34;5071954;28;20100;-53
2021/12/18 07:17:23;;;;;;;1.63;0.75;;;;;;;1.28;54.81;99761.97;5072277;28;20088;-49
2021/12/18 07:19:48;;;;;;;4.10;1.25;;;;;;;1.47;55.05;99799.00;5070491;28;20036;-52
2021/12/18 07:22:14;;;;;;;2.28;1.20;;;;;;;1.49;55.71;99802.41;5070356;28;20041;-58
2021/12/18 07:24:39;;;;;;;2.55;1.00;;;;;;;1.39;54.90;99795.81;5072485;28;20415;-55
2021/12/18 07:27:05;;;;;;;2.65;1.20;;;;;;;1.40;55.49;99806.31;5072135;28;20035;-52
2021/12/18 07:29:31;;;;;;;3.45;1.20;;;;;;;1.33;54.92;99790.78;5071950;28;20043;-54
2021/12/18 07:31:56;;;;;;;3.40;0.98;;;;;;;1.34;55.94;99788.09;5068625;28;20048;-57
2021/12/18 07:34:22;;;;;;;6.65;1.63;;;;;;;1.23;55.52;99770.09;5072653;28;20396;-55
2021/12/18 07:36:47;;;;;;;6.18;2.20;;;;;;;1.43;55.33;99802.66;5080459;28;20056;-55
2021/12/18 07:39:13;;;;;;;3.75;1.70;;;;;;;1.48;55.53;99802.47;5078277;28;20028;-50
2021/12/18 07:41:39;;;;;;;2.22;1.05;;;;;;;1.48;55.56;99799.81;5079024;28;20488;-53
2021/12/18 07:44:06;;;;;;;2.42;1.00;;;;;;;1.49;55.75;99798.91;5087586;28;20490;-56
2021/12/18 07:46:33;;;;;;;2.33;1.30;;;;;;;1.63;55.50;99799.16;5074278;28;20027;-53
2021/12/18 07:48:59;;;;;;;4.00;1.42;;;;;;;1.68;55.59;99791.91;5084707;28;20044;-57
2021/12/18 07:51:25;;;;;;;6.80;2.10;;;;;;;1.77;55.24;99798.56;5080164;28;20039;-56
2021/12/18 07:53:51;;;;;;;4.05;2.03;;;;;;;1.64;55.64;99785.06;5077760;28;20037;-54
2021/12/18 07:56:18;;;;;;;3.95;1.80;;;;;;;1.66;55.58;99793.75;5087973;28;20200;-53
2021/12/18 07:58:44;;;;;;;3.42;1.85;;;;;;;1.67;55.93;99799.88;5075372;28;20157;-55
2021/12/18 08:01:10;;;;;;;2.90;1.65;;;;;;;1.63;56.56;99793.88;5082049;28;20540;-55
2021/12/18 08:03:35;;;;;;;2.42;1.42;;;;;;;1.62;56.80;99793.94;5082924;28;20031;-49
2021/12/18 08:06:01;;;;;;;2.92;1.60;;;;;;;1.53;56.72;99790.78;5075780;28;20099;-55
2021/12/18 08:08:26;;;;;;;3.78;1.80;;;;;;;1.50;57.34;99785.66;5087576;28;20028;-56
2021/12/18 08:10:52;;;;;;;4.30;2.08;;;;;;;1.51;57.45;99789.13;5076411;28;20032;-53
2021/12/18 08:13:17;;;;;;;3.75;2.10;;;;;;;1.50;57.91;99782.16;5080552;28;20479;-55
2021/12/18 08:15:43;;;;;;;4.30;2.40;;;;;;;1.38;58.62;99784.41;5083768;28;20028;-53
2021/12/18 08:18:09;;;;;;;4.13;2.15;;;;;;;1.14;59.72;99767.84;5074645;28;20061;-51
2021/12/18 08:20:35;;;;;;;4.32;2.28;;;;;;;1.02;61.04;99782.41;5087344;28;20024;-57
2021/12/18 08:23:01;;;;;;;5.05;2.50;;;;;;;0.93;61.33;99772.25;5078333;28;20069;-56
2021/12/18 08:25:28;;;;;;;4.63;2.40;;;;;;;0.83;61.63;99761.22;5080134;28;20029;-56
2021/12/18 08:27:59;;;;;;;4.35;1.98;;;;;;;0.87;61.45;99768.09;5083364;28;20476;-56
2021/12/18 08:30:28;;;;;;;2.75;1.30;;;;;;;0.85;61.21;99762.00;5070499;28;20028;-51
2021/12/18 08:32:53;;;;;;;3.42;1.95;;;;;;;0.89;61.00;99754.84;5082836;28;20072;-54
2021/12/18 08:35:19;;;;;;;7.55;4.05;;;;;;;0.97;61.10;99747.47;5077929;28;20395;-49
2021/12/18 08:37:45;;;;;;;10.98;4.55;;;;;;;1.11;60.95;99738.97;5075239;28;20518;-53
2021/12/18 08:40:12;;;;;;;7.30;3.80;;;;;;;1.25;59.68;99733.09;5084266;28;20085;-52
2021/12/18 08:42:38;;;;;;;10.73;4.90;;;;;;;1.03;59.14;99686.56;5068083;28;20123;-53
2021/12/18 08:45:05;;;;;;;12.88;5.95;;;;;;;1.36;58.86;99738.78;5066863;28;20024;-55
2021/12/18 08:47:30;;;;;;;10.27;4.63;;;;;;;1.50;58.97;99743.44;5068621;28;20037;-52
2021/12/18 08:49:56;;;;;;;9.25;4.00;;;;;;;1.75;58.17;99734.41;5068571;28;20039;-49
2021/12/18 08:52:22;;;;;;;7.07;2.63;;;;;;;1.93;57.03;99716.88;5068882;28;20032;-55
2021/12/18 08:54:48;;;;;;;2.85;1.70;;;;;;;2.01;56.76;99714.72;5069075;28;20380;-53
2021/12/18 08:57:13;;;;;;;3.70;1.73;;;;;;;1.88;57.16;99703.03;5070638;28;20028;-54
2021/12/18 08:59:39;;;;;;;6.10;2.33;;;;;;;1.75;57.26;99713.31;5070575;28;20028;-56
2021/12/18 09:02:09;;;;;;;4.55;1.55;;;;;;;1.68;58.22;99712.72;5071411;28;20435;-52
2021/12/18 09:04:36;;;;;;;5.57;2.38;;;;;;;1.52;57.88;99706.41;5074830;28;20024;-52
2021/12/18 09:07:02;;;;;;;3.65;2.10;;;;;;;1.39;58.56;99701.69;5074714;28;20487;-57
2021/12/18 09:09:27;;;;;;;5.65;2.30;;;;;;;1.32;58.85;99699.41;5074211;28;20036;-56
2021/12/18 09:11:53;;;;;;;4.22;2.45;;;;;;;1.22;59.12;99697.19;5069642;28;20029;-56
2021/12/18 09:14:18;;;;;;;7.07;2.80;;;;;;;0.87;59.42;99643.34;5074683;28;20036;-54
2021/12/18 09:16:44;;;;;;;7.43;2.85;;;;;;;1.03;59.72;99683.09;5069083;28;20418;-58
2021/12/18 09:19:10;;;;;;;6.82;3.58;;;;;;;1.03;59.50;99694.47;5083764;28;20383;-56
2021/12/18 09:21:35;;;;;;;7.53;3.35;;;;;;;1.01;59.99;99680.50;5077280;28;20061;-56
2021/12/18 09:24:01;;;;;;;5.78;2.92;;;;;;;1.05;60.03;99691.78;5088894;28;20124;-52
2021/12/18 09:26:27;;;;;;;4.45;2.67;;;;;;;1.11;59.88;99671.28;5077633;28;20115;-52
2021/12/18 09:28:52;;;;;;;4.80;2.28;;;;;;;1.13;59.88;99673.84;5081495;28;20929;-54
2021/12/18 09:31:18;;;;;;;4.63;2.28;;;;;;;1.19;59.16;99668.28;5075559;28;20131;-54
2021/12/18 09:33:44;;;;;;;5.03;2.20;;;;;;;1.24;59.72;99676.88;5080914;28;20035;-53
2021/12/18 09:36:09;;;;;;;7.72;4.03;;;;;;;1.29;59.68;99666.97;5087407;28;20043;-52
2021/12/18 09:38:35;;;;;;;7.63;4.22;;;;;;;1.32;59.26;99667.75;5073728;28;20025;-50
2021/12/18 09:41:02;;;;;;;7.20;4.00;;;;;;;1.36;59.10;99675.47;5086976;28;20032;-52
2021/12/18 09:43:29;;;;;;;9.48;4.40;;;;;;;1.41;58.91;99667.31;5076481;28;20174;-52
2021/12/18 09:46:03;;;;;;;8.07;3.30;;;;;;;1.45;58.95;99663.66;5077105;28;20482;-53
2021/12/18 09:48:29;;;;;;;5.55;2.17;;;;;;;1.46;58.76;99657.44;5084669;28;20465;-56
2021/12/18 09:50:57;;;;;;;3.85;1.60;;;;;;;1.54;58.43;99665.84;5085477;28;20047;-56
2021/12/18 09:53:23;;;;;;;3.33;1.35;;;;;;;1.58;57.49;99656.88;5075788;28;20040;-53
2021/12/18 09:55:49;;;;;;;4.70;1.80;;;;;;;1.61;56.56;99652.38;5088908;28;20028;-55
2021/12/18 09:58:14;;;;;;;4.70;2.08;;;;;;;1.64;57.47;99657.50;5079623;28;20035;-54
2021/12/18 10:00:40;;;;;;;4.30;1.63;;;;;;;1.57;56.87;99641.13;5081918;28;20032;-56
2021/12/18 10:03:07;;;;;;;3.28;1.00;;;;;;;1.45;56.89;99647.81;5081906;28;20109;-50
2021/12/18 10:05:35;;;;;;;1.77;0.70;;;;;;;1.29;57.34;99658.19;5073230;28;20030;-55
2021/12/18 10:08:09;;;;;;;1.90;0.70;;;;;;;1.21;58.00;99648.00;5078112;28;20093;-57
2021/12/18 10:10:36;;;;;;;3.43;0.70;;;;;;;1.13;57.85;99652.75;5089039;28;20039;-55
2021/12/18 10:13:08;;;;;;;1.35;0.80;;;;;;;1.13;57.49;99650.09;5079110;28;20104;-54
2021/12/18 10:15:35;;;;;;;2.50;0.70;;;;;;;1.14;57.18;99659.72;5088157;28;20046;-53
2021/12/18 10:18:19;;;;;;;0.90;0.60;;;;;;;1.24;57.83;99658.41;5077611;28;20032;-52
2021/12/18 10:20:44;;;;;;;2.60;0.85;;;;;;;1.24;56.49;99649.63;5081187;28;20028;-51
2021/12/18 10:23:10;;;;;;;2.30;0.77;;;;;;;1.20;56.28;99635.72;5070729;28;20100;-52
2021/12/18 10:25:35;;;;;;;2.40;1.20;;;;;;;1.16;55.57;99635.94;5072065;28;20028;-52
2021/12/18 10:28:14;;;;;;;4.53;1.05;;;;;;;0.98;56.14;99622.63;5072873;28;20036;-52
2021/12/18 10:30:51;;;;;;;2.47;0.90;;;;;;;1.03;56.27;99649.66;5071506;28;20067;-49
2021/12/18 10:33:18;;;;;;;2.17;1.27;;;;;;;0.84;56.71;99645.19;5072530;28;20086;-53
2021/12/18 10:35:52;;;;;;;5.43;2.30;;;;;;;0.81;57.00;99634.75;5072519;28;20123;-57
2021/12/18 10:38:38;;;;;;;4.95;2.00;;;;;;;0.80;57.59;99635.69;5072568;28;20119;-51
2021/12/18 10:41:19;;;;;;;3.10;1.67;;;;;;;0.75;57.55;99637.69;5072523;28;20036;-51
2021/12/18 10:44:06;;;;;;;3.50;1.10;;;;;;;0.73;57.78;99633.41;5072483;28;20033;-53
2021/12/18 10:46:33;;;;;;;4.65;0.88;;;;;;;0.65;57.43;99642.47;5072683;28;20099;-53
2021/12/18 10:49:05;;;;;;;3.75;1.15;;;;;;;0.50;57.83;99607.09;5072375;28;20029;-53
2021/12/18 10:51:33;;;;;;;2.72;1.70;;;;;;;0.65;58.16;99634.56;5073104;28;20032;-52
2021/12/18 10:54:13;;;;;;;6.25;2.22;;;;;;;0.74;58.08;99629.84;5072624;28;20036;-51
2021/12/18 10:56:41;;;;;;;5.43;2.08;;;;;;;0.63;57.96;99625.03;5072081;28;20048;-56
2021/12/18 10:59:22;;;;;;;3.55;1.30;;;;;;;0.66;58.25;99638.09;5071083;28;20116;-52
2021/12/18 11:01:52;;;;;;;2.10;0.90;;;;;;;0.59;58.34;99619.03;5071916;28;20430;-54
2021/12/18 11:04:26;;;;;;;1.73;1.02;;;;;;;0.58;58.23;99635.78;5064218;28;20420;-58
2021/12/18 11:06:54;;;;;;;2.75;1.00;;;;;;;0.52;58.35;99625.50;5061644;28;20068;-54
2021/12/18 11:09:31;;;;;;;1.42;0.90;;;;;;;0.52;58.19;99626.34;5072228;28;20035;-53
2021/12/18 11:14:43;;;;;;;1.98;1.10;;;;;;;0.51;57.66;99619.34;5070095;28;20039;-55
2021/12/18 11:17:13;;;;;;;3.47;0.80;;;;;;;0.53;57.42;99612.25;5067899;28;20085;-55
2021/12/18 11:19:41;;;;;;;1.95;0.68;;;;;;;0.54;56.59;99611.31;5069428;28;20035;-51
2021/12/18 11:22:13;;;;;;;1.38;0.90;;;;;;;0.57;56.70;99612.97;5070644;28;20119;-54
2021/12/18 11:25:01;;;;;;;3.50;1.30;;;;;;;0.62;57.17;99613.63;5070761;28;20066;-54
2021/12/18 11:27:32;;;;;;;1.85;0.95;;;;;;;0.57;55.71;99613.81;5069146;28;20342;-53
2021/12/18 11:30:06;;;;;;;3.65;1.08;;;;;;;0.61;55.99;99611.91;5070076;28;20028;-54
2021/12/18 11:32:34;;;;;;;2.35;0.70;;;;;;;0.60;54.90;99610.22;5072260;28;20045;-57
2021/12/18 11:35:03;;;;;;;3.35;0.98;;;;;;;0.52;55.13;99600.00;5071098;28;20032;-56
2021/12/18 11:37:40;;;;;;;3.22;1.10;;;;;;;0.53;55.38;99595.59;5072295;28;20029;-59
2021/12/18 11:40:09;;;;;;;2.50;0.98;;;;;;;0.48;55.02;99597.53;5071897;28;20120;-53
2021/12/18 11:42:35;;;;;;;0.88;0.65;;;;;;;0.52;54.83;99607.06;5072460;28;20040;-52
2021/12/18 11:45:05;;;;;;;2.80;0.50;;;;;;;0.51;55.22;99600.06;5072214;28;20032;-56
2021/12/18 11:47:39;;;;;;;0.82;0.50;;;;;;;0.52;56.14;99597.34;5071611;28;20043;-50
2021/12/18 11:50:22;;;;;;;1.55;0.52;;;;;;;0.60;56.03;99596.16;5071591;28;20032;-53
2021/12/18 11:53:11;;;;;;;0.82;0.63;;;;;;;0.62;55.70;99583.81;5071784;28;20542;-53
2021/12/18 11:55:55;;;;;;;1.48;0.60;;;;;;;0.54;55.55;99578.88;5072470;28;20024;-55
2021/12/18 11:58:25;;;;;;;1.70;0.85;;;;;;;0.47;55.16;99586.16;5071497;28;20051;-53
2021/12/18 12:01:05;;;;;;;2.67;1.23;;;;;;;0.45;55.42;99588.00;5070424;28;20407;-53
2021/12/18 12:03:35;;;;;;;5.97;1.67;;;;;;;0.33;55.21;99578.84;5071791;28;20040;-52
2021/12/18 12:06:21;;;;;;;2.90;1.58;;;;;;;0.28;55.68;99578.19;5071913;28;20345;-53
2021/12/18 12:08:50;;;;;;;3.30;1.70;;;;;;;0.22;56.19;99555.59;5071385;28;20492;-53
2021/12/18 12:11:26;;;;;;;3.13;1.40;;;;;;;0.32;56.07;99553.44;5070260;28;20089;-57
2021/12/18 12:13:51;;;;;;;;;;;;;;;0.59;56.87;99557.56;5072380;28;20039;-55
2021/12/18 12:16:17;;;;;;;;;;;;;;;0.73;56.81;99549.09;5071919;28;19916;-53
2021/12/18 12:19:05;;;;;;;1.17;0.90;;;;;;;0.64;56.15;99555.63;5071561;28;19954;-54
2021/12/18 12:21:44;;;;;;;2.40;1.20;;;;;;;0.59;56.57;99547.03;5071234;28;20039;-55
2021/12/18 12:24:11;;;;;;;1.98;1.02;;;;;;;0.51;56.84;99532.44;5071584;28;20035;-52
2021/12/18 12:26:37;;;;;;;3.13;1.15;;;;;;;0.47;56.70;99541.38;5071420;28;20021;-54
2021/12/18 12:29:05;;;;;;;5.15;1.13;;;;;;;0.48;56.69;99544.88;5071030;28;20465;-53
2021/12/18 12:31:31;;;;;;;3.67;1.17;;;;;;;0.19;57.35;99486.41;5071059;28;20419;-55